Time;durP1;ratioP1;P1;durP2;ratioP2;P2;SDS_P1;SDS_P2;PMS_P1;PMS_P2;Temp;Humidity;BMP_temperature;BMP_pressure;BME280_temperature;BME280_humidity;BME280_pressure;Samples;Min_cycle;Max_cycle;Signal;HPM_P1;HPM_P2
2021/01/24 00:02:05;;;;;;;7.43;3.25;;;;;;;3.58;80.88;94797.41;4902797;29;20484;-81
2021/01/24 00:04:30;;;;;;;5.55;3.38;;;;;;;3.65;80.51;94799.72;4911042;29;20055;-81
2021/01/24 00:06:56;;;;;;;5.35;3.35;;;;;;;3.61;80.71;94796.13;4916485;29;20035;-81
2021/01/24 00:09:22;;;;;;;7.28;3.13;;;;;;;3.63;80.70;94805.13;4913950;29;20114;-81
2021/01/24 00:11:47;;;;;;;7.38;3.05;;;;;;;3.64;80.95;94805.91;4897943;29;20062;-81
2021/01/24 00:14:13;;;;;;;3.28;1.98;;;;;;;3.60;80.42;94804.88;4930065;29;20048;-81
2021/01/24 00:16:39;;;;;;;2.75;1.60;;;;;;;3.48;80.64;94807.69;4922131;29;20035;-81
2021/01/24 00:19:04;;;;;;;3.55;1.70;;;;;;;3.36;80.73;94810.56;4933156;29;20036;-81
2021/01/24 00:21:30;;;;;;;1.65;1.00;;;;;;;3.51;80.03;94812.34;4913557;29;20028;-81
2021/01/24 00:23:56;;;;;;;2.10;0.82;;;;;;;3.39;79.73;94815.16;4911174;29;20542;-81
2021/01/24 00:26:22;;;;;;;1.77;0.93;;;;;;;3.33;80.03;94822.09;4913523;29;20499;-81
2021/01/24 00:28:48;;;;;;;1.52;0.90;;;;;;;3.41;80.48;94828.56;4903420;29;20030;-81
2021/01/24 00:31:14;;;;;;;1.23;0.80;;;;;;;3.44;79.13;94825.44;4922907;29;20480;-80
2021/01/24 00:33:40;;;;;;;2.65;0.90;;;;;;;3.37;79.21;94827.50;4925829;29;20122;-80
2021/01/24 00:36:06;;;;;;;1.20;1.08;;;;;;;3.33;79.41;94834.22;4912608;29;20454;-80
2021/01/24 00:38:33;;;;;;;1.20;0.82;;;;;;;3.30;78.53;94832.91;4928293;29;20101;-80
2021/01/24 00:41:04;;;;;;;1.52;0.80;;;;;;;3.28;79.52;94836.78;4922925;29;20028;-80
2021/01/24 00:43:31;;;;;;;1.02;0.73;;;;;;;3.13;79.68;94842.66;4928526;29;20103;-80
2021/01/24 00:45:57;;;;;;;0.85;0.60;;;;;;;3.15;79.84;94845.72;4911998;29;20031;-80
2021/01/24 00:48:22;;;;;;;2.20;0.65;;;;;;;3.17;79.38;94848.81;4926808;29;20134;-81
2021/01/24 00:50:50;;;;;;;1.98;0.80;;;;;;;3.19;79.92;94859.66;4928746;29;20098;-81
2021/01/24 00:53:16;;;;;;;1.20;0.70;;;;;;;3.08;79.52;94861.41;4912531;29;20036;-81
2021/01/24 00:55:43;;;;;;;1.20;1.10;;;;;;;3.13;79.82;94863.22;4926943;29;20677;-81
2021/01/24 00:58:08;;;;;;;1.23;0.77;;;;;;;2.71;79.78;94852.06;4929101;29;20074;-82
2021/01/24 01:00:34;;;;;;;1.52;0.80;;;;;;;2.73;80.11;94872.34;4905292;29;20058;-81
2021/01/24 01:03:00;;;;;;;1.40;1.00;;;;;;;2.64;80.03;94879.78;4907032;29;20042;-80
2021/01/24 01:05:26;;;;;;;0.80;0.70;;;;;;;2.66;79.92;94872.59;4905806;29;20057;-80
2021/01/24 01:07:51;;;;;;;1.77;1.00;;;;;;;2.44;79.64;94878.63;4908106;29;20028;-81
2021/01/24 01:10:20;;;;;;;1.60;1.45;;;;;;;2.39;80.24;94880.41;4904854;29;20036;-81
2021/01/24 01:12:45;;;;;;;1.60;1.13;;;;;;;2.33;80.13;94889.91;4925073;29;20068;-80
2021/01/24 01:15:11;;;;;;;1.05;0.75;;;;;;;2.36;80.56;94904.78;4913956;29;20044;-81
2021/01/24 01:17:37;;;;;;;2.28;0.82;;;;;;;2.38;79.80;94905.34;4922859;29;20047;-80
2021/01/24 01:20:04;;;;;;;1.83;0.90;;;;;;;2.26;81.03;94915.00;4913063;29;20036;-80
2021/01/24 01:22:30;;;;;;;1.58;0.90;;;;;;;2.40;80.03;94921.25;4912198;29;20028;-80
2021/01/24 01:24:56;;;;;;;1.88;1.35;;;;;;;2.44;79.36;94930.00;4911886;29;20036;-81
2021/01/24 01:27:21;;;;;;;2.97;1.20;;;;;;;2.28;79.97;94928.38;4911865;29;20032;-81
2021/01/24 01:29:47;;;;;;;1.77;1.27;;;;;;;2.22;80.19;94930.13;4913098;29;20495;-80
2021/01/24 01:32:13;;;;;;;1.88;1.05;;;;;;;2.18;80.63;94941.16;4911662;29;20047;-80
2021/01/24 01:34:38;;;;;;;1.50;1.20;;;;;;;2.19;80.84;94935.78;4913715;29;20070;-81
2021/01/24 01:37:04;;;;;;;1.92;1.00;;;;;;;1.96;80.86;94941.22;4893730;29;20761;-81
2021/01/24 01:39:30;;;;;;;2.17;1.27;;;;;;;1.98;81.66;94952.78;4912455;29;20564;-81
2021/01/24 01:41:55;;;;;;;1.05;0.70;;;;;;;1.91;81.01;94957.34;4925998;29;20119;-81
2021/01/24 01:44:22;;;;;;;0.90;0.63;;;;;;;2.00;81.39;94961.00;4925086;29;20668;-81
2021/01/24 01:46:50;;;;;;;3.00;1.20;;;;;;;1.95;80.92;94966.09;4913524;29;20047;-81
2021/01/24 01:49:17;;;;;;;1.40;1.13;;;;;;;2.06;81.15;94967.75;4926998;29;20032;-81
2021/01/24 01:51:43;;;;;;;1.15;0.80;;;;;;;2.00;81.16;94957.69;4913549;29;20100;-81
2021/01/24 01:54:09;;;;;;;1.52;0.98;;;;;;;1.98;81.46;94964.84;4912004;29;20032;-80
2021/01/24 01:56:35;;;;;;;1.90;0.90;;;;;;;2.06;81.15;94978.00;4912538;29;20047;-81
2021/01/24 01:59:01;;;;;;;1.50;1.23;;;;;;;2.00;81.20;94975.66;4921819;29;20040;-82
2021/01/24 02:01:33;;;;;;;1.83;0.80;;;;;;;1.76;80.56;94985.44;4897104;29;20155;-82
2021/01/24 02:04:32;;;;;;;0.93;0.70;;;;;;;1.79;81.50;94982.41;4910836;23;20044;-82
2021/01/24 02:07:03;;;;;;;1.65;0.75;;;;;;;1.81;81.08;94985.50;4895748;29;20036;-81
2021/01/24 02:09:38;;;;;;;0.93;0.80;;;;;;;1.78;80.88;94993.66;4897501;29;20143;-80
2021/01/24 02:12:26;;;;;;;1.83;0.60;;;;;;;1.67;81.67;94993.56;4878171;29;20044;-81
2021/01/24 02:15:05;;;;;;;1.70;0.90;;;;;;;1.91;80.65;94998.41;4893086;29;20286;-81
2021/01/24 02:17:36;;;;;;;1.85;0.85;;;;;;;1.74;81.14;95002.88;4903867;29;20506;-82
2021/01/24 02:20:27;;;;;;;2.17;1.05;;;;;;;1.62;81.96;95001.22;4881457;29;20467;-81
2021/01/24 02:22:53;;;;;;;2.03;1.35;;;;;;;1.91;81.44;95005.34;4892888;29;20124;-81
2021/01/24 02:25:53;;;;;;;2.60;1.30;;;;;;;1.72;81.05;95012.59;4902911;29;20044;-79
2021/01/24 02:28:43;;;;;;;3.30;1.67;;;;;;;1.73;81.03;95021.84;4882812;29;20380;-82
2021/01/24 02:31:10;;;;;;;2.90;1.90;;;;;;;1.68;81.10;95022.56;4913609;29;20051;-81
2021/01/24 02:33:38;;;;;;;3.30;1.95;;;;;;;1.75;81.69;95025.72;4893937;29;20038;-81
2021/01/24 02:36:05;;;;;;;4.20;2.47;;;;;;;1.81;80.83;95029.09;4913602;29;20484;-81
2021/01/24 02:38:32;;;;;;;3.30;2.08;;;;;;;1.58;80.37;95030.16;4884850;29;20403;-81
2021/01/24 02:40:58;;;;;;;3.72;2.13;;;;;;;1.67;80.88;95044.09;4908969;29;20068;-82
2021/01/24 02:43:24;;;;;;;3.35;2.42;;;;;;;1.75;80.65;95042.88;4896765;29;20051;-81
2021/01/24 02:45:51;;;;;;;4.38;2.25;;;;;;;1.62;80.02;95049.19;4864524;29;20044;-80
2021/01/24 02:48:19;;;;;;;4.88;2.80;;;;;;;1.76;80.46;95052.91;4911858;29;20115;-80
2021/01/24 02:50:48;;;;;;;4.07;2.35;;;;;;;1.48;80.17;95059.03;4872669;29;20028;-78
2021/01/24 02:53:15;;;;;;;5.50;2.90;;;;;;;1.56;80.81;95061.19;4908256;29;20043;-81
2021/01/24 02:55:42;;;;;;;5.78;2.95;;;;;;;1.73;80.16;95083.41;4893838;29;20398;-81
2021/01/24 02:58:08;;;;;;;4.97;2.85;;;;;;;1.60;80.38;95069.94;4881030;29;20507;-79
2021/01/24 03:00:34;;;;;;;5.68;2.92;;;;;;;1.58;80.37;95087.34;4895989;29;20274;-79
2021/01/24 03:02:59;;;;;;;6.00;3.10;;;;;;;1.61;79.79;95086.09;4882480;29;20499;-78
2021/01/24 03:05:25;;;;;;;6.80;3.40;;;;;;;1.72;79.89;95087.00;4895265;29;20092;-80
2021/01/24 03:07:52;;;;;;;6.60;3.90;;;;;;;1.77;80.05;95097.31;4891948;29;20037;-82
2021/01/24 03:10:19;;;;;;;8.63;4.15;;;;;;;1.78;80.12;95102.22;4892975;29;20036;-82
2021/01/24 03:12:59;;;;;;;8.40;4.60;;;;;;;1.65;79.79;95105.91;4891018;29;20025;-80
2021/01/24 03:15:25;;;;;;;10.63;4.93;;;;;;;1.60;80.07;95093.00;4893199;29;20039;-80
2021/01/24 03:17:52;;;;;;;10.10;4.72;;;;;;;1.42;81.60;95113.81;4860787;29;20037;-80
2021/01/24 03:20:18;;;;;;;10.38;5.10;;;;;;;1.69;80.81;95119.03;4893203;29;20047;-82
2021/01/24 03:22:44;;;;;;;10.98;5.28;;;;;;;1.59;80.78;95127.34;4892563;29;20121;-81
2021/01/24 03:25:11;;;;;;;11.50;6.00;;;;;;;1.60;80.64;95126.34;4861588;29;20041;-79
2021/01/24 03:27:37;;;;;;;9.55;5.13;;;;;;;1.59;80.55;95129.94;4877248;29;20039;-81
2021/01/24 03:30:05;;;;;;;11.38;5.22;;;;;;;1.49;80.77;95140.06;4892545;29;20079;-79
2021/01/24 03:32:31;;;;;;;9.95;4.68;;;;;;;1.54;79.67;95137.56;4877467;29;20040;-79
2021/01/24 03:34:57;;;;;;;10.02;4.97;;;;;;;1.53;80.34;95133.44;4876225;29;20032;-79
2021/01/24 03:37:23;;;;;;;12.93;6.18;;;;;;;1.38;80.22;95148.63;4877824;29;20093;-78
2021/01/24 03:39:48;;;;;;;12.40;5.68;;;;;;;1.58;80.30;95148.13;4877458;29;20048;-79
2021/01/24 03:42:14;;;;;;;12.75;5.50;;;;;;;1.52;79.95;95143.94;4877925;29;20033;-79
2021/01/24 03:44:40;;;;;;;12.10;6.40;;;;;;;1.30;81.09;95142.91;4874954;29;20512;-78
2021/01/24 03:47:05;;;;;;;11.45;5.68;;;;;;;1.41;80.15;95153.31;4876399;29;20063;-78
2021/01/24 03:49:31;;;;;;;11.65;5.72;;;;;;;1.54;79.88;95162.44;4909459;29;20073;-80
2021/01/24 03:51:57;;;;;;;13.27;6.13;;;;;;;1.48;79.79;95170.06;4872393;29;20036;-79
2021/01/24 03:54:23;;;;;;;11.35;6.20;;;;;;;1.36;80.45;95151.44;4878201;29;20032;-79
2021/01/24 03:56:49;;;;;;;12.23;6.40;;;;;;;1.53;79.14;95160.91;4895764;29;20202;-80
2021/01/24 03:59:15;;;;;;;11.27;5.53;;;;;;;1.28;79.68;95165.41;4862751;29;20127;-79
2021/01/24 04:01:40;;;;;;;10.55;4.70;;;;;;;1.36;79.19;95177.06;4877580;29;20043;-80
2021/01/24 04:04:06;;;;;;;9.85;5.50;;;;;;;1.27;78.77;95179.25;4883449;29;20566;-80
2021/01/24 04:06:32;;;;;;;9.75;4.55;;;;;;;1.31;78.89;95190.59;4916531;29;20040;-80
2021/01/24 04:08:58;;;;;;;9.18;4.90;;;;;;;1.32;79.70;95186.25;4908984;29;20037;-79
2021/01/24 04:11:23;;;;;;;9.95;5.10;;;;;;;1.21;79.04;95193.00;4893656;29;20036;-79
2021/01/24 04:13:50;;;;;;;9.27;4.78;;;;;;;1.24;79.15;95200.22;4909056;29;20036;-79
2021/01/24 04:16:16;;;;;;;9.10;4.80;;;;;;;1.28;79.63;95201.31;4894854;29;20044;-79
2021/01/24 04:18:42;;;;;;;10.90;5.35;;;;;;;1.22;79.98;95207.38;4912366;29;20055;-80
2021/01/24 04:21:08;;;;;;;9.73;4.57;;;;;;;0.98;78.87;95203.41;4896856;29;20032;-79
2021/01/24 04:23:34;;;;;;;9.32;3.92;;;;;;;1.03;79.51;95216.28;4908647;29;20032;-78
2021/01/24 04:25:59;;;;;;;10.30;4.38;;;;;;;1.14;78.53;95227.50;4878194;29;20574;-80
2021/01/24 04:28:26;;;;;;;9.98;4.40;;;;;;;1.20;78.96;95240.16;4909703;29;20043;-78
2021/01/24 04:30:51;;;;;;;8.95;4.53;;;;;;;1.11;79.57;95223.59;4892852;29;20547;-79
2021/01/24 04:33:17;;;;;;;7.10;3.88;;;;;;;1.20;78.15;95234.25;4893375;29;20048;-79
2021/01/24 04:35:43;;;;;;;9.13;4.18;;;;;;;1.24;77.86;95243.81;4895694;29;20041;-78
2021/01/24 04:38:09;;;;;;;10.38;4.43;;;;;;;1.17;78.21;95245.75;4908755;29;20044;-79
2021/01/24 04:40:35;;;;;;;6.20;3.88;;;;;;;1.01;77.43;95241.38;4915870;29;20043;-79
2021/01/24 04:43:02;;;;;;;7.88;4.03;;;;;;;1.10;78.45;95255.38;4909021;29;20044;-79
2021/01/24 04:45:28;;;;;;;8.90;4.45;;;;;;;1.19;77.29;95248.84;4908192;29;20181;-80
2021/01/24 04:47:55;;;;;;;7.40;3.85;;;;;;;0.98;78.69;95246.97;4913077;29;20396;-78
2021/01/24 04:50:21;;;;;;;6.30;3.70;;;;;;;1.05;77.54;95255.31;4913293;29;20036;-80
2021/01/24 04:52:47;;;;;;;7.82;4.07;;;;;;;1.04;76.95;95262.19;4912059;29;20032;-79
2021/01/24 04:55:13;;;;;;;6.30;3.28;;;;;;;1.09;77.24;95253.81;4903875;29;20071;-81
2021/01/24 04:57:40;;;;;;;6.82;3.45;;;;;;;0.99;76.61;95256.97;4912878;29;20056;-80
2021/01/24 05:00:07;;;;;;;6.05;3.83;;;;;;;1.16;77.11;95257.00;4912490;29;20033;-80
2021/01/24 05:02:34;;;;;;;7.25;3.72;;;;;;;1.12;78.06;95254.13;4912537;29;20519;-80
2021/01/24 05:04:59;;;;;;;9.32;3.47;;;;;;;1.09;77.25;95264.84;4919190;29;20036;-81
2021/01/24 05:07:27;;;;;;;7.00;3.17;;;;;;;1.04;77.85;95264.75;4924920;29;20488;-80
2021/01/24 05:09:53;;;;;;;7.03;3.88;;;;;;;0.99;77.45;95259.53;4881867;29;20033;-80
2021/01/24 05:12:19;;;;;;;6.47;3.47;;;;;;;0.93;78.28;95271.50;4911810;29;20039;-80
2021/01/24 05:14:50;;;;;;;8.25;3.75;;;;;;;0.86;76.81;95263.19;4894390;29;20396;-80
2021/01/24 05:17:16;;;;;;;9.68;4.13;;;;;;;0.97;77.87;95260.78;4919696;29;20036;-79
2021/01/24 05:19:43;;;;;;;7.10;3.70;;;;;;;0.95;77.05;95271.28;4912758;29;20028;-80
2021/01/24 05:22:09;;;;;;;6.25;3.38;;;;;;;0.88;78.00;95268.84;4897702;29;20029;-79
2021/01/24 05:24:35;;;;;;;5.85;3.40;;;;;;;0.93;77.56;95276.63;4897570;29;20075;-79
2021/01/24 05:27:11;;;;;;;7.07;3.60;;;;;;;0.79;79.23;95284.81;4912849;29;20025;-81
2021/01/24 05:29:42;;;;;;;5.22;3.50;;;;;;;0.91;77.61;95285.56;4903526;29;20428;-81
2021/01/24 05:32:08;;;;;;;9.82;4.90;;;;;;;0.93;79.01;95286.88;4897130;29;20092;-81
2021/01/24 05:34:35;;;;;;;9.02;4.13;;;;;;;0.98;78.31;95288.75;4918928;29;20037;-81
2021/01/24 05:37:01;;;;;;;7.82;4.15;;;;;;;0.89;78.91;95285.78;4915840;29;20380;-80
2021/01/24 05:39:30;;;;;;;8.65;3.72;;;;;;;0.93;78.84;95298.91;4912203;29;20392;-81
2021/01/24 05:41:57;;;;;;;6.90;3.80;;;;;;;1.03;78.43;95295.72;4887123;29;20147;-81
2021/01/24 05:44:24;;;;;;;8.40;4.00;;;;;;;0.97;78.29;95310.25;4911355;29;20028;-80
2021/01/24 05:46:52;;;;;;;6.05;3.67;;;;;;;0.84;78.20;95307.94;4893476;29;20385;-81
2021/01/24 05:49:29;;;;;;;8.52;4.32;;;;;;;0.64;79.86;95308.38;4918571;29;20523;-81
2021/01/24 05:52:06;;;;;;;9.07;4.38;;;;;;;0.68;79.64;95315.34;4911834;29;20036;-81
2021/01/24 05:54:43;;;;;;;8.93;4.10;;;;;;;0.76;78.26;95309.13;4911675;29;20028;-80
2021/01/24 05:57:11;;;;;;;7.03;3.85;;;;;;;0.91;78.39;95308.63;4896004;29;20051;-81
2021/01/24 05:59:49;;;;;;;9.05;3.85;;;;;;;0.68;77.96;95312.78;4911519;29;20029;-81
2021/01/24 06:02:16;;;;;;;7.03;3.38;;;;;;;0.84;78.13;95319.00;4894526;29;20570;-82
2021/01/24 06:04:46;;;;;;;9.52;3.72;;;;;;;0.72;77.93;95323.34;4895696;29;20175;-81
2021/01/24 06:07:16;;;;;;;5.82;3.28;;;;;;;0.72;78.80;95333.59;4895252;29;20040;-81
2021/01/24 06:09:43;;;;;;;6.68;3.75;;;;;;;0.88;78.13;95324.44;4895205;29;20269;-82
2021/01/24 06:12:11;;;;;;;5.00;3.33;;;;;;;0.91;77.73;95337.56;4900220;29;20092;-81
2021/01/24 06:14:41;;;;;;;6.35;3.70;;;;;;;0.70;78.66;95327.94;4899046;29;20476;-82
2021/01/24 06:17:29;;;;;;;8.65;3.67;;;;;;;0.54;79.94;95340.44;4911853;29;20484;-80
2021/01/24 06:20:01;;;;;;;6.63;3.70;;;;;;;0.69;78.94;95339.97;4908098;29;20044;-81
2021/01/24 06:22:49;;;;;;;8.50;3.92;;;;;;;0.61;79.65;95349.78;4900640;29;20044;-82
2021/01/24 06:25:20;;;;;;;6.13;3.65;;;;;;;0.73;78.51;95342.84;4899424;29;20040;-82
2021/01/24 06:28:22;;;;;;;10.40;4.45;;;;;;;0.73;79.27;95347.97;4918338;29;20478;-81
2021/01/24 06:30:49;;;;;;;6.32;3.53;;;;;;;0.83;78.88;95357.66;4878617;29;20037;-82
2021/01/24 06:33:17;;;;;;;7.05;4.38;;;;;;;0.82;78.38;95361.97;4895715;29;20058;-82
2021/01/24 06:35:45;;;;;;;7.07;4.03;;;;;;;0.78;78.38;95355.75;4895849;29;20116;-82
2021/01/24 06:38:12;;;;;;;8.10;4.25;;;;;;;0.87;77.93;95364.63;4886814;29;20766;-82
2021/01/24 06:40:42;;;;;;;8.57;4.20;;;;;;;0.80;78.29;95365.78;4896171;29;20080;-82
2021/01/24 06:43:08;;;;;;;8.05;3.92;;;;;;;0.92;77.55;95372.41;4901925;29;20036;-82
2021/01/24 06:45:37;;;;;;;7.47;4.22;;;;;;;0.95;77.95;95380.69;4895627;29;20040;-82
2021/01/24 06:48:04;;;;;;;7.05;3.70;;;;;;;0.89;77.46;95367.78;4895590;29;20036;-81
2021/01/24 06:50:49;;;;;;;5.82;3.67;;;;;;;0.73;77.86;95371.81;4918115;29;20043;-83
2021/01/24 06:53:18;;;;;;;6.78;4.10;;;;;;;0.90;77.05;95382.13;4895152;29;20044;-82
2021/01/24 06:56:06;;;;;;;8.60;4.22;;;;;;;0.70;77.75;95379.16;4903611;29;20066;-81
2021/01/24 06:58:47;;;;;;;8.20;4.03;;;;;;;0.82;76.79;95379.91;4886731;29;20048;-81
2021/01/24 07:01:26;;;;;;;8.23;4.53;;;;;;;0.53;78.20;95379.06;4884878;29;20028;-82
2021/01/24 07:04:28;;;;;;;6.50;3.58;;;;;;;0.57;78.37;95395.56;4910073;29;20390;-80
2021/01/24 07:07:18;;;;;;;6.70;3.53;;;;;;;0.63;78.18;95396.44;4901575;29;20396;-80
2021/01/24 07:09:44;;;;;;;7.00;3.70;;;;;;;0.95;77.25;95414.00;4895035;29;20036;-82
2021/01/24 07:12:10;;;;;;;8.25;4.20;;;;;;;0.89;77.55;95406.22;4896762;29;20292;-81
2021/01/24 07:14:41;;;;;;;8.65;4.13;;;;;;;0.91;77.04;95416.22;4892160;29;20032;-82
2021/01/24 07:17:16;;;;;;;8.40;4.10;;;;;;;0.87;76.64;95410.75;4894762;29;20056;-81
2021/01/24 07:19:44;;;;;;;8.15;4.03;;;;;;;0.67;78.25;95415.47;4917211;29;20043;-80
2021/01/24 07:22:11;;;;;;;10.32;4.28;;;;;;;0.77;77.42;95425.16;4896312;29;20048;-80
2021/01/24 07:24:39;;;;;;;9.10;4.22;;;;;;;0.84;77.24;95434.28;4914160;29;20107;-81
2021/01/24 07:27:14;;;;;;;8.00;4.65;;;;;;;0.81;77.35;95442.41;4919653;29;20059;-81
2021/01/24 07:29:42;;;;;;;9.38;4.35;;;;;;;0.93;77.01;95438.03;4902536;29;20048;-81
2021/01/24 07:32:16;;;;;;;8.50;4.20;;;;;;;0.74;76.84;95447.66;4897671;29;20024;-80
2021/01/24 07:34:47;;;;;;;6.85;4.15;;;;;;;0.67;77.78;95441.06;4896124;29;20443;-81
2021/01/24 07:37:19;;;;;;;7.95;3.97;;;;;;;0.58;78.17;95453.44;4910218;29;20115;-81
2021/01/24 07:39:49;;;;;;;7.80;4.72;;;;;;;0.71;77.83;95468.59;4894326;29;20079;-81
2021/01/24 07:42:19;;;;;;;6.90;3.90;;;;;;;0.72;78.24;95465.03;4895379;29;20051;-82
2021/01/24 07:44:45;;;;;;;7.97;3.90;;;;;;;0.74;77.58;95460.47;4910618;29;20184;-80
2021/01/24 07:47:15;;;;;;;9.35;5.53;;;;;;;0.76;78.02;95467.16;4902321;29;20032;-81
2021/01/24 07:49:40;;;;;;;7.47;3.50;;;;;;;0.78;77.23;95471.03;4878224;29;20040;-80
2021/01/24 07:52:07;;;;;;;6.93;4.05;;;;;;;0.87;76.71;95469.69;4908901;29;20037;-82
2021/01/24 07:54:37;;;;;;;7.95;4.38;;;;;;;0.82;77.43;95474.69;4911395;29;20037;-81
2021/01/24 07:57:05;;;;;;;7.07;4.05;;;;;;;1.01;76.97;95483.06;4919449;29;20112;-83
2021/01/24 07:59:34;;;;;;;6.75;3.70;;;;;;;0.97;77.39;95481.16;4895637;29;20033;-83
2021/01/24 08:02:03;;;;;;;9.55;4.93;;;;;;;0.67;78.15;95476.94;4914504;29;20032;-83
2021/01/24 08:04:42;;;;;;;10.35;3.72;;;;;;;0.68;76.78;95489.53;4898332;29;20048;-82
2021/01/24 08:07:08;;;;;;;8.75;4.38;;;;;;;0.81;77.55;95496.22;4893461;29;20049;-82
2021/01/24 08:09:41;;;;;;;8.38;4.05;;;;;;;0.67;76.94;95494.88;4909282;29;20165;-82
2021/01/24 08:12:11;;;;;;;8.18;5.32;;;;;;;0.74;76.46;95498.88;4877646;29;20029;-82
2021/01/24 08:14:39;;;;;;;8.30;4.25;;;;;;;1.00;76.63;95512.25;4863354;29;20472;-82
2021/01/24 08:17:12;;;;;;;7.10;3.72;;;;;;;0.83;76.85;95507.00;4908618;29;20060;-82
2021/01/24 08:19:40;;;;;;;8.20;3.75;;;;;;;0.78;76.27;95512.03;4907444;29;20032;-80
2021/01/24 08:22:07;;;;;;;8.55;3.83;;;;;;;0.88;76.52;95516.59;4908923;29;20055;-82
2021/01/24 08:24:34;;;;;;;8.55;3.70;;;;;;;1.05;76.60;95514.91;4898783;29;20043;-80
2021/01/24 08:27:00;;;;;;;7.70;3.83;;;;;;;0.97;75.78;95522.16;4894032;29;20115;-79
2021/01/24 08:29:34;;;;;;;7.57;3.97;;;;;;;0.98;77.05;95526.25;4909157;29;20542;-82
2021/01/24 08:32:05;;;;;;;7.57;4.18;;;;;;;0.92;75.15;95522.81;4893530;29;20052;-81
2021/01/24 08:34:32;;;;;;;7.25;4.30;;;;;;;0.99;76.17;95526.03;4909337;29;20432;-82
2021/01/24 08:36:59;;;;;;;6.80;4.20;;;;;;;1.06;76.07;95528.50;4908957;29;20029;-80
2021/01/24 08:39:26;;;;;;;6.40;3.40;;;;;;;0.88;75.45;95530.19;4854699;29;20500;-79
2021/01/24 08:41:53;;;;;;;6.60;3.90;;;;;;;0.91;75.63;95534.88;4899959;29;20107;-82
2021/01/24 08:44:22;;;;;;;7.47;3.92;;;;;;;0.89;76.34;95539.44;4908726;29;20032;-81
2021/01/24 08:46:53;;;;;;;7.18;4.28;;;;;;;0.95;75.75;95547.25;4898042;29;20052;-81
2021/01/24 08:49:26;;;;;;;7.28;3.92;;;;;;;1.01;75.05;95548.88;4915408;29;20087;-81
2021/01/24 08:51:53;;;;;;;8.63;4.13;;;;;;;1.02;74.19;95553.03;4892784;29;20052;-80
2021/01/24 08:54:32;;;;;;;8.00;4.25;;;;;;;0.98;74.33;95551.91;4892739;29;20335;-80
2021/01/24 08:57:20;;;;;;;7.25;3.70;;;;;;;0.97;74.63;95558.81;4900261;29;20484;-81
2021/01/24 08:59:49;;;;;;;8.95;3.85;;;;;;;1.14;74.82;95558.91;4909927;29;20079;-81
2021/01/24 09:02:15;;;;;;;8.82;3.78;;;;;;;1.20;75.61;95567.50;4890405;29;20033;-82
2021/01/24 09:04:48;;;;;;;7.82;3.58;;;;;;;1.15;74.34;95567.38;4893089;29;20419;-81
2021/01/24 09:07:17;;;;;;;9.48;3.90;;;;;;;1.21;74.29;95567.25;4894601;29;20048;-80
2021/01/24 09:09:45;;;;;;;7.72;3.83;;;;;;;1.07;74.64;95574.41;4884024;29;20044;-79
2021/01/24 09:12:15;;;;;;;8.05;3.80;;;;;;;1.22;74.66;95576.53;4907731;29;20392;-79
2021/01/24 09:14:41;;;;;;;9.52;4.22;;;;;;;1.30;75.02;95583.88;4893730;29;20088;-80
2021/01/24 09:17:06;;;;;;;7.15;3.53;;;;;;;1.40;74.17;95578.16;4909437;29;20033;-81
2021/01/24 09:19:37;;;;;;;7.78;3.67;;;;;;;1.09;74.09;95587.00;4899032;29;20044;-80
2021/01/24 09:22:09;;;;;;;9.07;4.28;;;;;;;1.18;74.05;95572.84;4919164;29;20512;-81
2021/01/24 09:24:35;;;;;;;9.07;4.35;;;;;;;1.34;73.47;95594.47;4900237;29;20063;-80
2021/01/24 09:27:02;;;;;;;8.07;3.80;;;;;;;1.18;74.19;95595.91;4909272;29;20033;-81
2021/01/24 09:29:31;;;;;;;7.97;3.75;;;;;;;1.25;73.71;95593.22;4908887;29;20033;-81
2021/01/24 09:31:59;;;;;;;7.68;3.72;;;;;;;1.33;74.50;95602.38;4893519;29;20679;-81
2021/01/24 09:34:24;;;;;;;7.07;3.38;;;;;;;1.22;73.12;95599.59;4899454;29;20029;-79
2021/01/24 09:36:50;;;;;;;7.32;3.97;;;;;;;1.29;74.21;95607.94;4917759;29;20045;-83
2021/01/24 09:39:16;;;;;;;7.00;3.30;;;;;;;1.39;73.86;95614.28;4895557;29;20046;-82
2021/01/24 09:41:42;;;;;;;6.45;3.70;;;;;;;1.31;74.06;95626.44;4911929;29;20044;-82
2021/01/24 09:44:22;;;;;;;6.63;3.92;;;;;;;1.29;73.36;95633.59;4896679;29;20112;-82
2021/01/24 09:46:51;;;;;;;8.82;4.07;;;;;;;1.34;74.01;95625.25;4892960;29;20043;-82
2021/01/24 09:49:20;;;;;;;7.38;3.95;;;;;;;1.33;74.14;95633.16;4903110;29;20036;-82
2021/01/24 09:51:46;;;;;;;6.60;2.97;;;;;;;1.22;72.82;95638.06;4898168;29;20032;-80
2021/01/24 09:54:17;;;;;;;6.13;3.17;;;;;;;1.23;73.21;95649.84;4911791;29;20444;-82
2021/01/24 09:56:43;;;;;;;7.47;2.90;;;;;;;1.44;73.24;95655.44;4896900;29;20032;-81
2021/01/24 09:59:09;;;;;;;5.35;3.05;;;;;;;1.54;72.83;95662.56;4896293;29;20041;-83
2021/01/24 10:01:34;;;;;;;9.73;3.63;;;;;;;1.57;74.40;95662.13;4886115;29;20138;-82
2021/01/24 10:04:00;;;;;;;7.18;2.97;;;;;;;1.40;72.67;95667.91;4901255;29;20052;-80
2021/01/24 10:06:28;;;;;;;6.10;3.05;;;;;;;1.44;73.01;95670.81;4900182;29;20067;-81
2021/01/24 10:08:56;;;;;;;9.43;3.83;;;;;;;1.60;73.47;95677.06;4902489;29;20055;-82
2021/01/24 10:11:23;;;;;;;5.82;3.13;;;;;;;1.69;72.23;95684.19;4881786;29;20037;-81
2021/01/24 10:13:49;;;;;;;6.82;3.70;;;;;;;1.74;72.86;95664.78;4917750;29;20495;-84
2021/01/24 10:16:17;;;;;;;5.25;3.20;;;;;;;1.55;72.30;95672.59;4897909;29;20024;-81
2021/01/24 10:18:43;;;;;;;5.75;3.10;;;;;;;1.64;71.76;95667.91;4900038;29;20036;-80
2021/01/24 10:21:10;;;;;;;4.85;2.83;;;;;;;1.80;71.39;95666.44;4928645;29;20583;-81
2021/01/24 10:23:35;;;;;;;7.03;2.92;;;;;;;2.10;70.92;95680.91;4900488;29;20392;-83
2021/01/24 10:26:01;;;;;;;5.28;2.97;;;;;;;2.18;70.08;95688.25;4883506;29;20044;-80
2021/01/24 10:28:28;;;;;;;7.13;2.53;;;;;;;2.05;70.08;95687.50;4915780;29;20028;-81
2021/01/24 10:30:54;;;;;;;5.28;3.15;;;;;;;2.08;70.91;95686.28;4883037;29;20031;-83
2021/01/24 10:33:21;;;;;;;6.07;2.92;;;;;;;1.89;69.54;95683.06;4915399;29;20020;-81
2021/01/24 10:35:47;;;;;;;5.47;2.90;;;;;;;1.85;71.80;95676.81;4914507;29;20031;-84
2021/01/24 10:38:14;;;;;;;5.80;2.90;;;;;;;1.96;70.76;95683.72;4897622;29;20041;-84
2021/01/24 10:40:40;;;;;;;6.57;2.80;;;;;;;1.94;72.21;95685.75;4913299;29;20041;-83
2021/01/24 10:43:07;;;;;;;6.47;2.95;;;;;;;1.93;71.12;95685.97;4912739;29;20036;-84
2021/01/24 10:45:35;;;;;;;5.00;2.67;;;;;;;2.07;70.21;95700.09;4901762;29;20040;-84
2021/01/24 10:48:02;;;;;;;4.75;2.80;;;;;;;2.12;70.44;95689.16;4912789;29;20516;-84
2021/01/24 10:50:27;;;;;;;5.40;2.78;;;;;;;2.17;70.59;95702.09;4882259;29;20028;-85
2021/01/24 10:52:54;;;;;;;5.55;3.20;;;;;;;2.04;72.10;95698.78;4896973;29;20029;-83
2021/01/24 10:55:20;;;;;;;6.20;2.65;;;;;;;1.90;70.15;95694.88;4899914;29;20029;-81
2021/01/24 10:57:47;;;;;;;6.82;2.83;;;;;;;1.99;70.52;95698.69;4904720;29;20159;-83
2021/01/24 11:00:14;;;;;;;4.47;2.33;;;;;;;1.94;69.98;95715.78;4911903;29;20469;-81
2021/01/24 11:02:40;;;;;;;6.90;3.03;;;;;;;2.15;70.99;95712.59;4909943;29;20062;-83
2021/01/24 11:05:07;;;;;;;3.92;2.60;;;;;;;2.12;70.42;95723.31;4880592;29;20041;-82
2021/01/24 11:07:34;;;;;;;5.53;2.65;;;;;;;2.14;70.49;95721.31;4880488;29;20100;-82
2021/01/24 11:09:59;;;;;;;3.60;2.40;;;;;;;2.02;69.39;95728.22;4866000;29;20077;-81
2021/01/24 11:12:25;;;;;;;4.63;2.95;;;;;;;2.18;71.22;95721.66;4903674;29;20064;-83
2021/01/24 11:14:51;;;;;;;5.00;3.00;;;;;;;2.00;70.54;95733.59;4880645;29;20123;-84
2021/01/24 11:17:18;;;;;;;5.38;2.70;;;;;;;1.95;70.53;95728.34;4882118;29;20387;-82
2021/01/24 11:19:44;;;;;;;5.20;2.40;;;;;;;2.02;69.66;95738.50;4880782;29;20048;-82
2021/01/24 11:22:10;;;;;;;5.80;2.72;;;;;;;2.15;70.86;95745.19;4896202;29;20052;-83
2021/01/24 11:24:36;;;;;;;4.68;2.83;;;;;;;2.23;71.89;95743.06;4879290;29;20036;-83
2021/01/24 11:27:08;;;;;;;5.85;3.38;;;;;;;2.10;70.45;95745.88;4895818;29;20120;-82
2021/01/24 11:29:34;;;;;;;6.15;2.90;;;;;;;2.14;71.18;95749.56;4910895;29;20044;-84
2021/01/24 11:32:01;;;;;;;4.97;2.72;;;;;;;2.27;70.35;95745.94;4894533;29;20057;-85
2021/01/24 11:34:27;;;;;;;4.60;2.83;;;;;;;2.21;70.60;95746.84;4880431;29;20036;-85
2021/01/24 11:36:53;;;;;;;4.47;2.63;;;;;;;2.14;69.50;95752.13;4911691;29;20085;-82
2021/01/24 11:39:20;;;;;;;3.95;2.38;;;;;;;2.01;70.06;95753.13;4881156;29;20043;-82
2021/01/24 11:41:46;;;;;;;5.78;3.13;;;;;;;2.11;70.37;95755.13;4879939;29;20039;-84
2021/01/24 11:44:12;;;;;;;4.82;2.50;;;;;;;2.08;70.88;95741.97;4894261;29;20048;-83
2021/01/24 11:46:39;;;;;;;4.75;2.42;;;;;;;2.04;70.11;95757.81;4897253;29;20029;-83
2021/01/24 11:49:05;;;;;;;6.78;3.97;;;;;;;1.97;69.30;95741.75;4881004;29;20452;-81